sensor_id;sensor_type;location;lat;lon;timestamp;temperature;humidity
70300;HTU21D;57704;51.112;5.878;2022-11-03T00:01:54;14.29;63.46
70300;HTU21D;57704;51.112;5.878;2022-11-03T00:04:21;14.30;63.53
70300;HTU21D;57704;51.112;5.878;2022-11-03T00:06:53;14.33;63.37
70300;HTU21D;57704;51.112;5.878;2022-11-03T00:09:21;14.36;63.25
70300;HTU21D;57704;51.112;5.878;2022-11-03T00:11:49;14.28;63.45
70300;HTU21D;57704;51.112;5.878;2022-11-03T00:14:16;14.30;63.41
70300;HTU21D;57704;51.112;5.878;2022-11-03T00:16:43;14.32;63.31
70300;HTU21D;57704;51.112;5.878;2022-11-03T00:19:10;14.32;63.29
70300;HTU21D;57704;51.112;5.878;2022-11-03T00:21:36;14.32;63.21
70300;HTU21D;57704;51.112;5.878;2022-11-03T00:24:03;14.29;63.12
70300;HTU21D;57704;51.112;5.878;2022-11-03T00:26:31;14.30;63.12
70300;HTU21D;57704;51.112;5.878;2022-11-03T00:29:01;14.28;63.19
70300;HTU21D;57704;51.112;5.878;2022-11-03T00:31:29;14.29;62.98
70300;HTU21D;57704;51.112;5.878;2022-11-03T00:33:57;14.27;63.02
70300;HTU21D;57704;51.112;5.878;2022-11-03T00:36:29;14.27;63.03
70300;HTU21D;57704;51.112;5.878;2022-11-03T00:38:55;14.26;62.96
70300;HTU21D;57704;51.112;5.878;2022-11-03T00:41:22;14.24;63.02
70300;HTU21D;57704;51.112;5.878;2022-11-03T00:43:50;14.22;62.95
70300;HTU21D;57704;51.112;5.878;2022-11-03T00:46:17;14.21;62.91
70300;HTU21D;57704;51.112;5.878;2022-11-03T00:48:44;14.21;62.95
70300;HTU21D;57704;51.112;5.878;2022-11-03T00:51:11;14.22;62.86
70300;HTU21D;57704;51.112;5.878;2022-11-03T00:56:24;14.22;62.74
70300;HTU21D;57704;51.112;5.878;2022-11-03T00:58:52;14.21;62.72
70300;HTU21D;57704;51.112;5.878;2022-11-03T01:01:23;14.22;62.69
70300;HTU21D;57704;51.112;5.878;2022-11-03T01:03:53;14.17;62.83
70300;HTU21D;57704;51.112;5.878;2022-11-03T01:06:46;14.17;62.76
70300;HTU21D;57704;51.112;5.878;2022-11-03T01:09:18;14.15;62.86
70300;HTU21D;57704;51.112;5.878;2022-11-03T01:12:00;14.15;62.81
70300;HTU21D;57704;51.112;5.878;2022-11-03T01:17:10;14.20;62.73
70300;HTU21D;57704;51.112;5.878;2022-11-03T01:19:36;14.15;62.86
70300;HTU21D;57704;51.112;5.878;2022-11-03T01:22:02;14.17;62.79
70300;HTU21D;57704;51.112;5.878;2022-11-03T01:24:28;14.18;62.84
70300;HTU21D;57704;51.112;5.878;2022-11-03T01:26:54;14.17;62.79
70300;HTU21D;57704;51.112;5.878;2022-11-03T01:29:20;14.14;62.89
70300;HTU21D;57704;51.112;5.878;2022-11-03T01:31:46;14.18;62.76
70300;HTU21D;57704;51.112;5.878;2022-11-03T01:34:18;14.19;62.77
70300;HTU21D;57704;51.112;5.878;2022-11-03T01:36:45;14.19;62.73
70300;HTU21D;57704;51.112;5.878;2022-11-03T01:39:13;14.21;62.68
70300;HTU21D;57704;51.112;5.878;2022-11-03T01:41:41;14.24;62.50
70300;HTU21D;57704;51.112;5.878;2022-11-03T01:49:32;14.18;62.66
70300;HTU21D;57704;51.112;5.878;2022-11-03T01:52:12;14.17;62.70
70300;HTU21D;57704;51.112;5.878;2022-11-03T01:54:43;14.17;62.65
70300;HTU21D;57704;51.112;5.878;2022-11-03T01:57:16;14.15;62.68
70300;HTU21D;57704;51.112;5.878;2022-11-03T01:59:46;14.17;62.65
70300;HTU21D;57704;51.112;5.878;2022-11-03T02:02:20;14.18;62.64
70300;HTU21D;57704;51.112;5.878;2022-11-03T02:04:46;14.18;62.64
70300;HTU21D;57704;51.112;5.878;2022-11-03T02:09:41;14.13;62.84
70300;HTU21D;57704;51.112;5.878;2022-11-03T02:12:09;14.12;62.80
70300;HTU21D;57704;51.112;5.878;2022-11-03T02:14:42;14.12;62.89
70300;HTU21D;57704;51.112;5.878;2022-11-03T02:17:15;14.10;62.91
70300;HTU21D;57704;51.112;5.878;2022-11-03T02:20:00;14.13;62.88
70300;HTU21D;57704;51.112;5.878;2022-11-03T02:22:49;14.11;62.92
70300;HTU21D;57704;51.112;5.878;2022-11-03T02:28:01;14.06;63.15
70300;HTU21D;57704;51.112;5.878;2022-11-03T02:30:34;14.05;63.21
70300;HTU21D;57704;51.112;5.878;2022-11-03T02:33:12;14.07;63.25
70300;HTU21D;57704;51.112;5.878;2022-11-03T02:35:58;14.01;63.37
70300;HTU21D;57704;51.112;5.878;2022-11-03T02:38:28;14.03;63.31
70300;HTU21D;57704;51.112;5.878;2022-11-03T02:41:00;13.98;63.38
70300;HTU21D;57704;51.112;5.878;2022-11-03T02:43:28;13.95;63.46
70300;HTU21D;57704;51.112;5.878;2022-11-03T02:45:55;13.97;63.50
70300;HTU21D;57704;51.112;5.878;2022-11-03T02:48:21;13.96;63.53
70300;HTU21D;57704;51.112;5.878;2022-11-03T02:50:47;13.93;63.54
70300;HTU21D;57704;51.112;5.878;2022-11-03T02:53:14;13.94;63.56
70300;HTU21D;57704;51.112;5.878;2022-11-03T02:56:04;13.91;63.62
70300;HTU21D;57704;51.112;5.878;2022-11-03T02:59:01;13.90;63.66
70300;HTU21D;57704;51.112;5.878;2022-11-03T03:01:34;13.92;63.60
70300;HTU21D;57704;51.112;5.878;2022-11-03T03:04:21;13.92;63.58
70300;HTU21D;57704;51.112;5.878;2022-11-03T03:07:00;13.91;63.53
70300;HTU21D;57704;51.112;5.878;2022-11-03T03:09:34;13.90;63.63
70300;HTU21D;57704;51.112;5.878;2022-11-03T03:12:05;13.90;63.60
70300;HTU21D;57704;51.112;5.878;2022-11-03T03:14:37;13.91;63.66
70300;HTU21D;57704;51.112;5.878;2022-11-03T03:17:17;13.90;63.72
70300;HTU21D;57704;51.112;5.878;2022-11-03T03:22:46;13.92;63.81
70300;HTU21D;57704;51.112;5.878;2022-11-03T03:27:58;13.93;63.98
70300;HTU21D;57704;51.112;5.878;2022-11-03T03:30:28;13.92;63.98
70300;HTU21D;57704;51.112;5.878;2022-11-03T03:32:58;13.98;63.95
70300;HTU21D;57704;51.112;5.878;2022-11-03T03:35:28;13.98;63.99
70300;HTU21D;57704;51.112;5.878;2022-11-03T03:38:06;13.97;64.02
70300;HTU21D;57704;51.112;5.878;2022-11-03T03:40:36;13.97;64.14
70300;HTU21D;57704;51.112;5.878;2022-11-03T03:43:07;13.96;64.18
70300;HTU21D;57704;51.112;5.878;2022-11-03T03:45:34;13.95;64.31
70300;HTU21D;57704;51.112;5.878;2022-11-03T03:48:03;13.95;64.39
70300;HTU21D;57704;51.112;5.878;2022-11-03T03:50:34;13.94;64.45
70300;HTU21D;57704;51.112;5.878;2022-11-03T03:53:04;13.94;64.51
70300;HTU21D;57704;51.112;5.878;2022-11-03T03:55:38;13.94;64.60
70300;HTU21D;57704;51.112;5.878;2022-11-03T03:58:05;13.92;64.75
70300;HTU21D;57704;51.112;5.878;2022-11-03T04:00:32;13.90;64.81
70300;HTU21D;57704;51.112;5.878;2022-11-03T04:02:58;13.88;64.93
70300;HTU21D;57704;51.112;5.878;2022-11-03T04:05:25;13.89;64.98
70300;HTU21D;57704;51.112;5.878;2022-11-03T04:07:51;13.83;65.17
70300;HTU21D;57704;51.112;5.878;2022-11-03T04:10:20;13.82;65.21
70300;HTU21D;57704;51.112;5.878;2022-11-03T04:12:47;13.81;65.29
70300;HTU21D;57704;51.112;5.878;2022-11-03T04:15:32;13.78;65.46
70300;HTU21D;57704;51.112;5.878;2022-11-03T04:18:20;13.77;65.61
70300;HTU21D;57704;51.112;5.878;2022-11-03T04:21:10;13.74;65.80
70300;HTU21D;57704;51.112;5.878;2022-11-03T04:24:03;13.70;66.05
70300;HTU21D;57704;51.112;5.878;2022-11-03T04:26:29;13.68;66.11
70300;HTU21D;57704;51.112;5.878;2022-11-03T04:28:56;13.67;66.42
70300;HTU21D;57704;51.112;5.878;2022-11-03T04:31:22;13.65;66.56
70300;HTU21D;57704;51.112;5.878;2022-11-03T04:33:48;13.66;66.58
70300;HTU21D;57704;51.112;5.878;2022-11-03T04:36:22;13.65;66.61
70300;HTU21D;57704;51.112;5.878;2022-11-03T04:38:50;13.67;66.66
70300;HTU21D;57704;51.112;5.878;2022-11-03T04:41:17;13.69;66.77
70300;HTU21D;57704;51.112;5.878;2022-11-03T04:43:44;13.70;66.81
70300;HTU21D;57704;51.112;5.878;2022-11-03T04:46:15;13.70;67.15
70300;HTU21D;57704;51.112;5.878;2022-11-03T04:48:42;13.69;67.17
70300;HTU21D;57704;51.112;5.878;2022-11-03T04:51:17;13.67;67.30
70300;HTU21D;57704;51.112;5.878;2022-11-03T04:53:51;13.67;67.40
70300;HTU21D;57704;51.112;5.878;2022-11-03T04:56:21;13.71;67.54
70300;HTU21D;57704;51.112;5.878;2022-11-03T04:58:48;13.70;67.79
70300;HTU21D;57704;51.112;5.878;2022-11-03T05:01:17;13.70;67.68
70300;HTU21D;57704;51.112;5.878;2022-11-03T05:03:49;13.69;67.99
70300;HTU21D;57704;51.112;5.878;2022-11-03T05:06:19;13.68;68.19
70300;HTU21D;57704;51.112;5.878;2022-11-03T05:08:50;13.68;68.17
70300;HTU21D;57704;51.112;5.878;2022-11-03T05:13:50;13.71;68.26
70300;HTU21D;57704;51.112;5.878;2022-11-03T05:16:18;13.75;68.26
70300;HTU21D;57704;51.112;5.878;2022-11-03T05:18:48;13.77;68.33
70300;HTU21D;57704;51.112;5.878;2022-11-03T05:21:17;13.78;68.42
70300;HTU21D;57704;51.112;5.878;2022-11-03T05:23:58;13.84;68.39
70300;HTU21D;57704;51.112;5.878;2022-11-03T05:26:30;13.89;68.26
70300;HTU21D;57704;51.112;5.878;2022-11-03T05:29:13;13.93;68.31
70300;HTU21D;57704;51.112;5.878;2022-11-03T05:31:41;13.92;68.31
70300;HTU21D;57704;51.112;5.878;2022-11-03T05:34:31;13.95;68.27
70300;HTU21D;57704;51.112;5.878;2022-11-03T05:37:19;13.98;68.26
70300;HTU21D;57704;51.112;5.878;2022-11-03T05:39:49;14.01;68.27
70300;HTU21D;57704;51.112;5.878;2022-11-03T05:42:30;14.01;68.26
70300;HTU21D;57704;51.112;5.878;2022-11-03T05:44:57;14.05;68.22
70300;HTU21D;57704;51.112;5.878;2022-11-03T05:47:33;14.07;68.17
70300;HTU21D;57704;51.112;5.878;2022-11-03T05:52:44;14.12;68.17
70300;HTU21D;57704;51.112;5.878;2022-11-03T05:55:24;14.11;68.13
70300;HTU21D;57704;51.112;5.878;2022-11-03T05:57:55;14.11;68.10
70300;HTU21D;57704;51.112;5.878;2022-11-03T06:00:29;14.11;68.13
70300;HTU21D;57704;51.112;5.878;2022-11-03T06:02:57;14.11;68.23
70300;HTU21D;57704;51.112;5.878;2022-11-03T06:05:25;14.12;68.17
70300;HTU21D;57704;51.112;5.878;2022-11-03T06:07:54;14.13;68.14
70300;HTU21D;57704;51.112;5.878;2022-11-03T06:10:25;14.17;68.09
70300;HTU21D;57704;51.112;5.878;2022-11-03T06:13:06;14.18;68.02
70300;HTU21D;57704;51.112;5.878;2022-11-03T06:15:34;14.19;68.00
70300;HTU21D;57704;51.112;5.878;2022-11-03T06:18:14;14.18;68.06
70300;HTU21D;57704;51.112;5.878;2022-11-03T06:20:41;14.18;67.97
70300;HTU21D;57704;51.112;5.878;2022-11-03T06:23:14;14.21;67.97
70300;HTU21D;57704;51.112;5.878;2022-11-03T06:25:42;14.18;68.02
70300;HTU21D;57704;51.112;5.878;2022-11-03T06:28:24;14.19;68.04
70300;HTU21D;57704;51.112;5.878;2022-11-03T06:30:54;14.22;67.99
70300;HTU21D;57704;51.112;5.878;2022-11-03T06:33:27;14.20;67.97
70300;HTU21D;57704;51.112;5.878;2022-11-03T06:36:07;14.18;67.99
70300;HTU21D;57704;51.112;5.878;2022-11-03T06:38:36;14.17;68.01
70300;HTU21D;57704;51.112;5.878;2022-11-03T06:41:02;14.19;68.01
70300;HTU21D;57704;51.112;5.878;2022-11-03T06:43:39;14.21;67.84
70300;HTU21D;57704;51.112;5.878;2022-11-03T06:46:21;14.22;67.81
70300;HTU21D;57704;51.112;5.878;2022-11-03T06:48:50;14.23;67.76
70300;HTU21D;57704;51.112;5.878;2022-11-03T06:53:48;14.25;67.73
70300;HTU21D;57704;51.112;5.878;2022-11-03T06:56:19;14.28;67.61
70300;HTU21D;57704;51.112;5.878;2022-11-03T06:58:47;14.26;67.68
70300;HTU21D;57704;51.112;5.878;2022-11-03T07:01:28;14.24;67.64
70300;HTU21D;57704;51.112;5.878;2022-11-03T07:07:01;14.28;67.58
70300;HTU21D;57704;51.112;5.878;2022-11-03T07:09:28;14.30;67.51
70300;HTU21D;57704;51.112;5.878;2022-11-03T07:11:57;14.30;67.39
70300;HTU21D;57704;51.112;5.878;2022-11-03T07:14:30;14.32;67.42
70300;HTU21D;57704;51.112;5.878;2022-11-03T07:17:15;14.34;67.32
70300;HTU21D;57704;51.112;5.878;2022-11-03T07:19:46;14.38;67.22
70300;HTU21D;57704;51.112;5.878;2022-11-03T07:22:21;14.40;67.19
70300;HTU21D;57704;51.112;5.878;2022-11-03T07:24:52;14.44;67.03
70300;HTU21D;57704;51.112;5.878;2022-11-03T07:27:28;14.47;66.91
70300;HTU21D;57704;51.112;5.878;2022-11-03T07:30:23;14.49;66.84
70300;HTU21D;57704;51.112;5.878;2022-11-03T07:32:52;14.52;66.75
70300;HTU21D;57704;51.112;5.878;2022-11-03T07:35:36;14.51;66.70
70300;HTU21D;57704;51.112;5.878;2022-11-03T07:38:14;14.54;66.65
70300;HTU21D;57704;51.112;5.878;2022-11-03T07:40:41;14.57;66.50
70300;HTU21D;57704;51.112;5.878;2022-11-03T07:43:30;14.63;66.34
70300;HTU21D;57704;51.112;5.878;2022-11-03T07:45:58;14.67;66.07
70300;HTU21D;57704;51.112;5.878;2022-11-03T07:48:44;14.73;65.81
70300;HTU21D;57704;51.112;5.878;2022-11-03T07:51:30;14.73;65.89
70300;HTU21D;57704;51.112;5.878;2022-11-03T07:54:14;14.79;65.53
70300;HTU21D;57704;51.112;5.878;2022-11-03T07:56:45;14.83;65.46
70300;HTU21D;57704;51.112;5.878;2022-11-03T07:59:19;14.80;65.54
70300;HTU21D;57704;51.112;5.878;2022-11-03T08:01:50;14.82;65.51
70300;HTU21D;57704;51.112;5.878;2022-11-03T08:04:19;14.84;65.43
70300;HTU21D;57704;51.112;5.878;2022-11-03T08:06:46;14.89;65.29
70300;HTU21D;57704;51.112;5.878;2022-11-03T08:09:13;14.89;65.28
70300;HTU21D;57704;51.112;5.878;2022-11-03T08:11:39;14.92;65.21
70300;HTU21D;57704;51.112;5.878;2022-11-03T08:14:05;14.95;65.14
70300;HTU21D;57704;51.112;5.878;2022-11-03T08:16:31;14.98;64.98
70300;HTU21D;57704;51.112;5.878;2022-11-03T08:18:57;15.00;64.93
70300;HTU21D;57704;51.112;5.878;2022-11-03T08:21:23;15.01;64.88
70300;HTU21D;57704;51.112;5.878;2022-11-03T08:23:49;15.07;64.68
70300;HTU21D;57704;51.112;5.878;2022-11-03T08:26:15;15.08;64.68
70300;HTU21D;57704;51.112;5.878;2022-11-03T08:28:42;15.09;64.62
70300;HTU21D;57704;51.112;5.878;2022-11-03T08:31:08;15.12;64.50
70300;HTU21D;57704;51.112;5.878;2022-11-03T08:33:34;15.19;64.18
70300;HTU21D;57704;51.112;5.878;2022-11-03T08:36:02;15.19;64.11
70300;HTU21D;57704;51.112;5.878;2022-11-03T08:38:29;15.23;63.99
70300;HTU21D;57704;51.112;5.878;2022-11-03T08:40:56;15.28;63.59
70300;HTU21D;57704;51.112;5.878;2022-11-03T08:43:27;15.36;63.37
70300;HTU21D;57704;51.112;5.878;2022-11-03T08:45:53;15.40;63.37
70300;HTU21D;57704;51.112;5.878;2022-11-03T08:48:20;15.46;63.04
70300;HTU21D;57704;51.112;5.878;2022-11-03T08:50:47;15.55;62.70
70300;HTU21D;57704;51.112;5.878;2022-11-03T08:53:18;15.62;62.50
70300;HTU21D;57704;51.112;5.878;2022-11-03T08:55:44;15.69;62.08
70300;HTU21D;57704;51.112;5.878;2022-11-03T08:58:10;15.72;62.17
70300;HTU21D;57704;51.112;5.878;2022-11-03T09:00:36;15.84;61.67
70300;HTU21D;57704;51.112;5.878;2022-11-03T09:03:02;15.84;61.58
70300;HTU21D;57704;51.112;5.878;2022-11-03T09:05:28;15.87;61.57
70300;HTU21D;57704;51.112;5.878;2022-11-03T09:07:54;15.90;61.19
70300;HTU21D;57704;51.112;5.878;2022-11-03T09:10:20;15.96;60.99
70300;HTU21D;57704;51.112;5.878;2022-11-03T09:12:46;16.03;60.62
70300;HTU21D;57704;51.112;5.878;2022-11-03T09:15:13;16.05;60.22
70300;HTU21D;57704;51.112;5.878;2022-11-03T09:17:39;16.01;60.44
70300;HTU21D;57704;51.112;5.878;2022-11-03T09:20:05;16.05;60.02
70300;HTU21D;57704;51.112;5.878;2022-11-03T09:22:31;16.04;60.12
70300;HTU21D;57704;51.112;5.878;2022-11-03T09:24:57;16.01;60.31
70300;HTU21D;57704;51.112;5.878;2022-11-03T09:27:23;16.05;60.09
70300;HTU21D;57704;51.112;5.878;2022-11-03T09:29:49;16.14;59.57
70300;HTU21D;57704;51.112;5.878;2022-11-03T09:32:15;16.15;59.26
70300;HTU21D;57704;51.112;5.878;2022-11-03T09:34:41;16.06;59.35
70300;HTU21D;57704;51.112;5.878;2022-11-03T09:37:07;16.06;59.67
70300;HTU21D;57704;51.112;5.878;2022-11-03T09:39:33;16.03;59.67
70300;HTU21D;57704;51.112;5.878;2022-11-03T09:42:00;16.06;59.75
70300;HTU21D;57704;51.112;5.878;2022-11-03T09:44:32;16.12;59.60
70300;HTU21D;57704;51.112;5.878;2022-11-03T09:46:59;16.13;59.50
70300;HTU21D;57704;51.112;5.878;2022-11-03T09:49:29;16.10;59.63
70300;HTU21D;57704;51.112;5.878;2022-11-03T09:51:57;16.13;59.34
70300;HTU21D;57704;51.112;5.878;2022-11-03T09:54:25;16.12;59.43
70300;HTU21D;57704;51.112;5.878;2022-11-03T09:56:51;16.08;59.64
70300;HTU21D;57704;51.112;5.878;2022-11-03T09:59:20;16.08;59.66
70300;HTU21D;57704;51.112;5.878;2022-11-03T10:01:49;16.12;59.48
70300;HTU21D;57704;51.112;5.878;2022-11-03T10:04:25;16.11;59.52
70300;HTU21D;57704;51.112;5.878;2022-11-03T10:06:57;16.11;59.53
70300;HTU21D;57704;51.112;5.878;2022-11-03T10:09:28;16.13;59.45
70300;HTU21D;57704;51.112;5.878;2022-11-03T10:11:54;16.14;59.38
70300;HTU21D;57704;51.112;5.878;2022-11-03T10:14:22;16.15;59.28
70300;HTU21D;57704;51.112;5.878;2022-11-03T10:16:55;16.17;59.06
70300;HTU21D;57704;51.112;5.878;2022-11-03T10:19:23;16.13;59.44
70300;HTU21D;57704;51.112;5.878;2022-11-03T10:21:50;16.19;59.19
70300;HTU21D;57704;51.112;5.878;2022-11-03T10:24:17;16.21;58.99
70300;HTU21D;57704;51.112;5.878;2022-11-03T10:26:52;16.20;58.90
70300;HTU21D;57704;51.112;5.878;2022-11-03T10:29:24;16.24;58.90
70300;HTU21D;57704;51.112;5.878;2022-11-03T10:31:56;16.28;58.67
70300;HTU21D;57704;51.112;5.878;2022-11-03T10:34:33;16.28;58.61
70300;HTU21D;57704;51.112;5.878;2022-11-03T10:37:17;16.33;58.64
70300;HTU21D;57704;51.112;5.878;2022-11-03T10:40:09;16.43;58.25
70300;HTU21D;57704;51.112;5.878;2022-11-03T10:42:36;16.45;58.21
70300;HTU21D;57704;51.112;5.878;2022-11-03T10:45:19;16.47;57.92
70300;HTU21D;57704;51.112;5.878;2022-11-03T10:48:05;16.52;57.58
70300;HTU21D;57704;51.112;5.878;2022-11-03T10:50:34;16.55;57.51
70300;HTU21D;57704;51.112;5.878;2022-11-03T10:53:00;16.56;57.39
70300;HTU21D;57704;51.112;5.878;2022-11-03T10:55:26;16.57;57.43
70300;HTU21D;57704;51.112;5.878;2022-11-03T10:57:54;16.61;57.34
70300;HTU21D;57704;51.112;5.878;2022-11-03T11:00:20;16.67;56.94
70300;HTU21D;57704;51.112;5.878;2022-11-03T11:02:48;16.72;57.13
70300;HTU21D;57704;51.112;5.878;2022-11-03T11:05:20;16.77;57.00
70300;HTU21D;57704;51.112;5.878;2022-11-03T11:07:49;16.78;56.68
70300;HTU21D;57704;51.112;5.878;2022-11-03T11:10:23;16.74;56.58
70300;HTU21D;57704;51.112;5.878;2022-11-03T11:15:46;16.67;56.45
70300;HTU21D;57704;51.112;5.878;2022-11-03T11:20:59;16.67;56.77
70300;HTU21D;57704;51.112;5.878;2022-11-03T11:28:32;16.92;56.03
70300;HTU21D;57704;51.112;5.878;2022-11-03T11:30:58;16.96;56.10
70300;HTU21D;57704;51.112;5.878;2022-11-03T11:33:27;17.05;55.72
70300;HTU21D;57704;51.112;5.878;2022-11-03T11:41:16;17.36;55.06
70300;HTU21D;57704;51.112;5.878;2022-11-03T11:43:42;17.49;54.54
70300;HTU21D;57704;51.112;5.878;2022-11-03T11:46:24;17.45;54.66
70300;HTU21D;57704;51.112;5.878;2022-11-03T11:51:24;17.54;54.38
70300;HTU21D;57704;51.112;5.878;2022-11-03T11:53:50;17.49;54.47
70300;HTU21D;57704;51.112;5.878;2022-11-03T11:56:17;17.40;54.70
70300;HTU21D;57704;51.112;5.878;2022-11-03T11:58:46;17.45;54.25
70300;HTU21D;57704;51.112;5.878;2022-11-03T12:01:33;17.34;54.64
70300;HTU21D;57704;51.112;5.878;2022-11-03T12:04:19;17.33;54.46
70300;HTU21D;57704;51.112;5.878;2022-11-03T12:06:47;17.25;54.97
70300;HTU21D;57704;51.112;5.878;2022-11-03T12:09:20;17.31;54.86
70300;HTU21D;57704;51.112;5.878;2022-11-03T12:16:54;17.24;54.50
70300;HTU21D;57704;51.112;5.878;2022-11-03T12:19:43;17.20;54.70
70300;HTU21D;57704;51.112;5.878;2022-11-03T12:24:47;17.20;54.80
70300;HTU21D;57704;51.112;5.878;2022-11-03T12:29:43;17.25;54.65
70300;HTU21D;57704;51.112;5.878;2022-11-03T12:32:09;17.24;54.63
70300;HTU21D;57704;51.112;5.878;2022-11-03T12:34:35;17.23;54.78
70300;HTU21D;57704;51.112;5.878;2022-11-03T12:37:01;17.22;54.61
70300;HTU21D;57704;51.112;5.878;2022-11-03T12:39:27;17.25;54.53
70300;HTU21D;57704;51.112;5.878;2022-11-03T12:41:53;17.25;54.55
70300;HTU21D;57704;51.112;5.878;2022-11-03T12:44:19;17.28;54.66
70300;HTU21D;57704;51.112;5.878;2022-11-03T12:46:45;17.28;54.62
70300;HTU21D;57704;51.112;5.878;2022-11-03T12:49:11;17.26;54.55
70300;HTU21D;57704;51.112;5.878;2022-11-03T12:51:37;17.25;54.65
70300;HTU21D;57704;51.112;5.878;2022-11-03T12:54:03;17.29;54.79
70300;HTU21D;57704;51.112;5.878;2022-11-03T12:56:30;17.36;54.35
70300;HTU21D;57704;51.112;5.878;2022-11-03T12:58:56;17.33;54.53
70300;HTU21D;57704;51.112;5.878;2022-11-03T13:01:22;17.35;54.59
70300;HTU21D;57704;51.112;5.878;2022-11-03T13:03:48;17.43;54.44
70300;HTU21D;57704;51.112;5.878;2022-11-03T13:06:13;17.45;54.38
70300;HTU21D;57704;51.112;5.878;2022-11-03T13:08:40;17.46;54.20
70300;HTU21D;57704;51.112;5.878;2022-11-03T13:11:06;17.41;54.45
70300;HTU21D;57704;51.112;5.878;2022-11-03T13:13:53;17.45;54.45
70300;HTU21D;57704;51.112;5.878;2022-11-03T13:16:20;17.45;54.46
70300;HTU21D;57704;51.112;5.878;2022-11-03T13:18:46;17.45;54.42
70300;HTU21D;57704;51.112;5.878;2022-11-03T13:21:13;17.45;54.62
70300;HTU21D;57704;51.112;5.878;2022-11-03T13:23:39;17.51;54.60
70300;HTU21D;57704;51.112;5.878;2022-11-03T13:26:06;17.54;54.44
70300;HTU21D;57704;51.112;5.878;2022-11-03T13:28:32;17.53;54.52
70300;HTU21D;57704;51.112;5.878;2022-11-03T13:30:58;17.51;54.65
70300;HTU21D;57704;51.112;5.878;2022-11-03T13:33:24;17.51;54.68
70300;HTU21D;57704;51.112;5.878;2022-11-03T13:35:51;17.52;54.49
70300;HTU21D;57704;51.112;5.878;2022-11-03T13:38:18;17.41;54.74
70300;HTU21D;57704;51.112;5.878;2022-11-03T13:40:44;17.38;54.84
70300;HTU21D;57704;51.112;5.878;2022-11-03T13:43:10;17.34;55.08
70300;HTU21D;57704;51.112;5.878;2022-11-03T13:45:36;17.23;55.61
70300;HTU21D;57704;51.112;5.878;2022-11-03T13:48:02;16.95;57.08
70300;HTU21D;57704;51.112;5.878;2022-11-03T13:50:28;16.34;60.61
70300;HTU21D;57704;51.112;5.878;2022-11-03T13:52:55;15.82;62.70
70300;HTU21D;57704;51.112;5.878;2022-11-03T13:55:21;15.44;64.50
70300;HTU21D;57704;51.112;5.878;2022-11-03T13:57:47;15.29;65.84
70300;HTU21D;57704;51.112;5.878;2022-11-03T14:00:14;15.15;66.91
70300;HTU21D;57704;51.112;5.878;2022-11-03T14:02:42;15.13;67.72
70300;HTU21D;57704;51.112;5.878;2022-11-03T14:05:09;15.09;68.13
70300;HTU21D;57704;51.112;5.878;2022-11-03T14:07:36;15.04;68.68
70300;HTU21D;57704;51.112;5.878;2022-11-03T14:10:03;14.95;69.09
70300;HTU21D;57704;51.112;5.878;2022-11-03T14:12:29;14.78;69.98
70300;HTU21D;57704;51.112;5.878;2022-11-03T14:14:56;14.62;70.81
70300;HTU21D;57704;51.112;5.878;2022-11-03T14:17:22;14.54;71.59
70300;HTU21D;57704;51.112;5.878;2022-11-03T14:19:50;14.51;71.96
70300;HTU21D;57704;51.112;5.878;2022-11-03T14:22:16;14.48;72.56
70300;HTU21D;57704;51.112;5.878;2022-11-03T14:24:42;14.33;72.91
70300;HTU21D;57704;51.112;5.878;2022-11-03T14:27:09;14.24;73.41
70300;HTU21D;57704;51.112;5.878;2022-11-03T14:29:35;14.19;73.96
70300;HTU21D;57704;51.112;5.878;2022-11-03T14:32:01;14.10;74.23
70300;HTU21D;57704;51.112;5.878;2022-11-03T14:34:27;13.96;74.71
70300;HTU21D;57704;51.112;5.878;2022-11-03T14:36:53;13.77;75.69
70300;HTU21D;57704;51.112;5.878;2022-11-03T14:39:19;13.68;76.00
70300;HTU21D;57704;51.112;5.878;2022-11-03T14:41:45;13.64;76.22
70300;HTU21D;57704;51.112;5.878;2022-11-03T14:44:33;13.63;76.45
70300;HTU21D;57704;51.112;5.878;2022-11-03T14:47:00;13.59;76.92
70300;HTU21D;57704;51.112;5.878;2022-11-03T14:49:31;13.54;76.78
70300;HTU21D;57704;51.112;5.878;2022-11-03T14:51:58;13.54;76.92
70300;HTU21D;57704;51.112;5.878;2022-11-03T14:54:25;13.55;77.10
70300;HTU21D;57704;51.112;5.878;2022-11-03T14:56:51;13.52;76.92
70300;HTU21D;57704;51.112;5.878;2022-11-03T14:59:19;13.52;77.25
70300;HTU21D;57704;51.112;5.878;2022-11-03T15:01:46;13.52;77.34
70300;HTU21D;57704;51.112;5.878;2022-11-03T15:04:12;13.56;77.02
70300;HTU21D;57704;51.112;5.878;2022-11-03T15:06:40;13.52;77.18
70300;HTU21D;57704;51.112;5.878;2022-11-03T15:09:07;13.54;77.25
70300;HTU21D;57704;51.112;5.878;2022-11-03T15:11:33;13.54;77.41
70300;HTU21D;57704;51.112;5.878;2022-11-03T15:14:00;13.52;77.35
70300;HTU21D;57704;51.112;5.878;2022-11-03T15:16:27;13.53;77.27
70300;HTU21D;57704;51.112;5.878;2022-11-03T15:18:54;13.58;77.37
70300;HTU21D;57704;51.112;5.878;2022-11-03T15:21:20;13.52;77.60
70300;HTU21D;57704;51.112;5.878;2022-11-03T15:23:46;13.51;77.45
70300;HTU21D;57704;51.112;5.878;2022-11-03T15:26:12;13.49;77.63
70300;HTU21D;57704;51.112;5.878;2022-11-03T15:28:38;13.51;77.30
70300;HTU21D;57704;51.112;5.878;2022-11-03T15:31:04;13.47;77.80
70300;HTU21D;57704;51.112;5.878;2022-11-03T15:33:31;13.45;77.55
70300;HTU21D;57704;51.112;5.878;2022-11-03T15:35:57;13.53;77.21
70300;HTU21D;57704;51.112;5.878;2022-11-03T15:38:23;13.50;77.71
70300;HTU21D;57704;51.112;5.878;2022-11-03T15:40:49;13.50;77.79
70300;HTU21D;57704;51.112;5.878;2022-11-03T15:43:15;13.54;77.35
70300;HTU21D;57704;51.112;5.878;2022-11-03T15:45:41;13.51;77.74
70300;HTU21D;57704;51.112;5.878;2022-11-03T15:48:07;13.51;77.50
70300;HTU21D;57704;51.112;5.878;2022-11-03T15:50:34;13.50;77.64
70300;HTU21D;57704;51.112;5.878;2022-11-03T15:53:00;13.54;77.56
70300;HTU21D;57704;51.112;5.878;2022-11-03T15:55:26;13.55;77.50
70300;HTU21D;57704;51.112;5.878;2022-11-03T15:57:52;13.58;77.40
70300;HTU21D;57704;51.112;5.878;2022-11-03T16:00:18;13.49;77.85
70300;HTU21D;57704;51.112;5.878;2022-11-03T16:02:45;13.50;78.05
70300;HTU21D;57704;51.112;5.878;2022-11-03T16:05:14;13.45;78.30
70300;HTU21D;57704;51.112;5.878;2022-11-03T16:07:41;13.44;78.53
70300;HTU21D;57704;51.112;5.878;2022-11-03T16:10:07;13.43;78.52
70300;HTU21D;57704;51.112;5.878;2022-11-03T16:12:33;13.44;78.62
70300;HTU21D;57704;51.112;5.878;2022-11-03T16:15:00;13.39;78.81
70300;HTU21D;57704;51.112;5.878;2022-11-03T16:17:26;13.37;78.90
70300;HTU21D;57704;51.112;5.878;2022-11-03T16:19:52;13.38;79.06
70300;HTU21D;57704;51.112;5.878;2022-11-03T16:22:18;13.41;79.21
70300;HTU21D;57704;51.112;5.878;2022-11-03T16:24:44;13.44;79.19
70300;HTU21D;57704;51.112;5.878;2022-11-03T16:27:13;13.22;80.74
70300;HTU21D;57704;51.112;5.878;2022-11-03T16:29:39;13.19;80.11
70300;HTU21D;57704;51.112;5.878;2022-11-03T16:32:05;13.18;80.65
70300;HTU21D;57704;51.112;5.878;2022-11-03T16:34:32;13.21;80.41